ADDS METAR Data INFO
IDs: Format: Raw Decoded Include TAF

Data at: 2314 UTC 15 Jul 2018

KMSY 152301Z 21004KT 10SM TS FEW040CB FEW085 FEW150 BKN250 33/24 A2998 RMK AO2 LTG DSNT S TSB01 FRQ LTGIC VC S TS VC S MOV STNRY CB VC SW MOV STNRY CB DSNT NE AND W VCSH S AND SW T03280239 $
KMSY 152253Z 26003KT 10SM VCTS FEW040 FEW150 BKN250 33/23 A2998 RMK AO2 LTG DSNT S TSE53 SLP155 CB DSNT NE S AND SW AND W T03280233 $
KMSY 152153Z 30003KT 10SM FEW040 FEW070 BKN250 33/23 A2998 RMK AO2 LTG DSNT S AND SW SLP154 CB DSNT N-NE E-SE S AND SW AND W T03330233 $
KMSY 152053Z 32004KT 10SM FEW045 BKN250 33/24 A3000 RMK AO2 LTG DSNT E TSB27E50 SLP162 OCNL LTGIC DSNT E CB DSNT N-NE E SW AND NW TCU DSNT S T03330244 56016 $
KMSY 152028Z 32006KT 10SM TS FEW040CB SCT150 BKN250 33/24 A2999 RMK AO2 LTG DSNT N AND E TSB27 OCNL LTGIC VC E TS VC E MOV STNRY CB DSNT N-NE SW AND NW VCSH E T03330244 $
KMSY 152020Z 30007KT 10SM SCT040TCU BKN250 33/24 A2999 RMK AO2 LTG DSNT N-E CB DSNT N-NE AND E-SE AND NW TCU VC E AND W VCSH E T03330239
KMSY 151953Z 31008KT 10SM VCTS SCT038 BKN250 34/24 A3000 RMK AO2 LTG DSNT E TSE53 SLP162 CB DSNT NE AND E-SE TCU DSNT NW T03390244
KMSY 151853Z 27008KT 10SM SCT035 BKN250 33/25 A3003 RMK AO2 SLP171 CB DSNT NE AND SW T03330250
KMSY 151753Z 29005KT 10SM FEW025 SCT050 BKN200 32/25 A3005 RMK AO2 SLP178 T03220250 10333 20267 58008
KMSY 151653Z 33006KT 10SM FEW023 BKN200 33/26 A3007 RMK AO2 SLP185 T03280261
KMSY 151553Z 32006KT 10SM SCT023 BKN200 32/26 A3007 RMK AO2 SLP186 T03170256
KMSY 151453Z 34008KT 10SM FEW030 BKN200 31/26 A3007 RMK AO2 SLP186 T03060256 50002
KMSY 151353Z 29007KT 10SM FEW030 BKN200 30/26 A3008 RMK AO2 SLP188 T03000256
KMSY 151253Z 30005KT 10SM FEW030 BKN200 28/26 A3007 RMK AO2 SLP185 T02780256
KMSY 151153Z 28004KT 10SM FEW040 BKN200 27/26 A3007 RMK AO2 SLP184 T02720256 10272 20261 53008
KMSY 151053Z 00000KT 8SM SCT049 BKN250 26/26 A3005 RMK AO2 SLP178 T02610256
KMSY 150953Z 25003KT 9SM FEW049 SCT140 SCT250 26/26 A3004 RMK AO2 SLP174 T02610256
KMSY 150853Z 00000KT 10SM FEW049 27/26 A3004 RMK AO2 SLP175 T02670256 53001
KMSY 150753Z 27005KT 9SM FEW030 27/25 A3004 RMK AO2 SLP175 T02670250
KMSY 150653Z 27005KT 10SM CLR 27/26 A3003 RMK AO2 SLP173 T02670256
KMSY 150553Z 23005KT 10SM CLR 27/26 A3004 RMK AO2 SLP175 T02720256 10311 20272 403500256 58001
KMSY 150453Z 23005KT 10SM FEW030 27/26 A3005 RMK AO2 SLP179 T02720256
KMSY 150353Z 23005KT 10SM FEW050 28/26 A3006 RMK AO2 SLP180 CB DSNT N T02830256
KMSY 150253Z COR 23005KT 10SM FEW050 29/26 A3004 RMK AO2 SLP175 CB DSNT N T02890256 51007
KMSY 150153Z 22003KT 10SM BKN050 BKN250 29/25 A3003 RMK AO2 SLP173 CB DSNT NW T02940250
KMSY 150053Z 20004KT 10SM FEW040 FEW100 SCT250 29/25 A3003 RMK AO2 LTG DSNT NW SLP171 CB DSNT N AND NE SW AND NW T02940250
KMSY 142353Z 20008KT 10SM SCT040 BKN250 31/26 A3002 RMK AO2 LTG DSNT E AND S SLP169 CB DSNT N-NE SW AND NW T03060256 10350 20306 55004
KMSY 142253Z 20009G18KT 10SM SCT040TCU BKN250 31/24 A3001 RMK AO2 LTG DSNT W SLP166 CB DSNT N-NE AND S-SW AND W TCU E T03110244
KMSY 142153Z 23007KT 10SM FEW020 FEW040CB SCT200 BKN250 34/24 A3002 RMK AO2 LTG DSNT SW SLP167 TSB11E38 CB OHD-NE-E MOV SLOWLY N CB DSNT N AND NE AND S-SW AND W TCU SE DSNT SW VCSH NE-E SHRA DSNT SW T03390239
KMSY 142138Z COR 25005KT 10SM FEW040CB SCT200 BKN250 34/24 A3002 RMK AO2 LTG DSNT E-SW TSB11E38 CB VC E MOV SLOWLY N CB DSNT N AND NE AND S-SW AND W TCU SE DSNT SW VCSH E SHRA DSNT SW T03440239
KMSY 142114Z 23005KT 10SM TS FEW045CB BKN250 34/25 A3002 RMK AO2 LTG DSNT E AND S TSE11B12 OCNL LTGIC VC E TS VC E MOV STNRY CB DSNT N AND NE AND S AND W VCSH E T03390250
KMSY 142112Z 23005KT 10SM TS CLR 34/24 A3002 RMK AO2 LTG DSNT E AND S TSE11B12 T03390244
KMSY 142053Z 26007KT 10SM SCT045 BKN250 34/24 A3003 RMK AO2 LTG DSNT S SLP173 CB DSNT N SE S AND SW AND NW T03440244 57021
KMSY 141953Z 20004KT 10SM FEW040 SCT250 34/24 A3005 RMK AO2 SLP180 CB DSNT N AND NE E S AND NW T03440239
KMSY 141853Z 00000KT 10SM SCT040 SCT250 35/23 A3008 RMK AO2 LTG DSNT S SLP187 CB DSNT NE E AND S TCU DSNT NW T03500233
KMSY 141753Z 23003KT 10SM SCT040 SCT250 33/24 A3010 RMK AO2 SLP194 CB DSNT NE AND SE T03280244 10339 20267 58006
KMSY 141653Z 28003KT 10SM SCT035 BKN200 32/25 A3012 RMK AO2 SLP201 T03220250
KMSY 141553Z 29004KT 10SM SCT030 BKN200 32/24 A3012 RMK AO2 SLP203 CB DSNT SE AND S T03220244
KMSY 141453Z 29005KT 10SM SCT030 BKN200 31/25 A3011 RMK AO2 SLP200 CB DSNT E SE AND S T03110250 50007
KMSY 141353Z 28008KT 10SM FEW030 SCT200 30/26 A3012 RMK AO2 SLP201 CB DSNT E AND S T03000256
KMSY 141253Z 29005KT 9SM FEW030 SCT200 28/26 A3011 RMK AO2 SLP198 CB DSNT E AND S T02780261
KMSY 141153Z 30004KT 7SM FEW030CB SCT200 27/26 A3009 RMK AO2 SLP194 CB E MOV W CB DSNT S T02670256 10272 20256 53006